Dante, Virginia
Current Conditions -  °F | °C
As of 5:15 AM on Thursday 18 Dec 2014 (Local Time) from KLNP Reporting Station
Overcast Overcast  
Wind Chill: 28°   Ceiling: 800
Heat Index: 28°   Visibility: 10mi
Dew Point: 25°   Wind: 0mph
Humidity: 86%   Direction: NA
Pressure: 30.14"   Gusts: NA
Location:  36.98°N, 82.3°W
Report Text: KLNP 181015Z AUTO 00000KT 10SM OVC008 M02/M04 A3014 RMK AO2
Loading
Personal Weather Stations






























Interactive Weather Map New forecast layout! Learn more

10-Day Weather Forecast

Advertisements
Track Severe Weather on mobile